createdAt,value
2017-08-30T00:00:27.374Z,55.90
2017-08-30T00:02:55.639Z,56.00
2017-08-30T00:05:23.917Z,56.00
2017-08-30T00:07:52.175Z,56.00
2017-08-30T00:10:20.397Z,56.00
2017-08-30T00:12:48.496Z,56.00
2017-08-30T00:15:16.716Z,56.00
2017-08-30T00:17:44.800Z,56.00
2017-08-30T00:20:13.070Z,56.00
2017-08-30T00:22:42.087Z,56.00
2017-08-30T00:28:13.058Z,55.80
2017-08-30T00:30:41.304Z,56.00
2017-08-30T00:33:09.578Z,56.00
2017-08-30T00:35:37.789Z,56.00
2017-08-30T00:38:06.071Z,56.00
2017-08-30T00:40:34.155Z,56.00
2017-08-30T00:43:02.431Z,56.00
2017-08-30T00:45:30.707Z,56.00
2017-08-30T00:47:58.964Z,56.00
2017-08-30T00:50:27.189Z,56.00
2017-08-30T00:52:55.438Z,56.00
2017-08-30T00:55:23.657Z,56.00
2017-08-30T00:57:51.889Z,56.00
2017-08-30T01:00:20.141Z,56.00
2017-08-30T01:02:48.363Z,56.00
2017-08-30T01:05:16.601Z,56.00
2017-08-30T01:07:44.965Z,56.00
2017-08-30T01:10:13.948Z,56.00
2017-08-30T01:12:42.214Z,56.00
2017-08-30T01:15:10.495Z,56.00
2017-08-30T01:17:38.732Z,56.00
2017-08-30T01:20:06.971Z,56.00
2017-08-30T01:22:35.238Z,56.00
2017-08-30T01:25:03.378Z,56.00
2017-08-30T01:27:31.605Z,56.00
2017-08-30T01:29:59.997Z,56.60
2017-08-30T01:32:28.267Z,56.00
2017-08-30T01:34:56.487Z,56.00
2017-08-30T01:37:24.737Z,56.00
2017-08-30T01:39:52.998Z,56.00
2017-08-30T01:42:21.217Z,56.60
2017-08-30T01:44:49.463Z,56.00
2017-08-30T01:47:17.728Z,56.00
2017-08-30T01:49:45.994Z,56.00
2017-08-30T01:52:14.278Z,56.00
2017-08-30T01:54:43.264Z,56.00
2017-08-30T01:57:11.524Z,56.00
2017-08-30T01:59:39.778Z,56.00
2017-08-30T02:02:08.132Z,56.00
2017-08-30T02:04:36.387Z,56.00
2017-08-30T02:07:04.627Z,56.00
2017-08-30T02:09:32.892Z,56.00
2017-08-30T02:12:01.141Z,56.00
2017-08-30T02:14:29.417Z,56.00
2017-08-30T02:16:57.664Z,56.00
2017-08-30T02:19:25.880Z,56.00
2017-08-30T02:21:54.167Z,56.00
2017-08-30T02:24:22.437Z,56.00
2017-08-30T02:26:50.657Z,56.00
2017-08-30T02:29:18.926Z,56.00
2017-08-30T02:31:47.144Z,56.00
2017-08-30T02:34:15.505Z,56.00
2017-08-30T02:36:43.976Z,56.10
2017-08-30T02:39:12.960Z,56.10
2017-08-30T02:41:41.186Z,56.00
2017-08-30T02:44:09.430Z,56.00
2017-08-30T02:46:37.656Z,56.00
2017-08-30T02:49:05.889Z,56.00
2017-08-30T02:51:34.910Z,56.00
2017-08-30T02:54:03.162Z,56.00
2017-08-30T02:56:31.409Z,56.00
2017-08-30T02:58:59.862Z,56.00
2017-08-30T03:01:28.113Z,56.00
2017-08-30T03:03:56.361Z,56.00
2017-08-30T03:06:24.593Z,56.00
2017-08-30T03:08:52.815Z,56.10
2017-08-30T03:11:21.039Z,56.00
2017-08-30T03:13:49.659Z,56.00
2017-08-30T03:16:17.904Z,56.10
2017-08-30T03:18:46.168Z,56.00
2017-08-30T03:21:14.458Z,56.00
2017-08-30T03:23:43.453Z,56.10
2017-08-30T03:26:11.678Z,56.10
2017-08-30T03:28:39.953Z,56.10
2017-08-30T03:31:08.218Z,56.00
2017-08-30T03:33:36.488Z,56.10
2017-08-30T03:36:04.774Z,56.00
2017-08-30T03:38:33.030Z,56.00
2017-08-30T03:41:01.243Z,56.10
2017-08-30T03:43:29.749Z,56.10
2017-08-30T03:45:58.005Z,56.00
2017-08-30T03:48:26.257Z,56.10
2017-08-30T03:50:54.530Z,56.10
2017-08-30T03:53:22.748Z,56.10
2017-08-30T03:55:50.791Z,56.10
2017-08-30T03:58:20.061Z,56.10
2017-08-30T04:00:48.317Z,56.00
2017-08-30T04:03:16.545Z,56.10
2017-08-30T04:05:45.018Z,56.10
2017-08-30T04:08:14.052Z,56.00
2017-08-30T04:10:42.297Z,56.00
2017-08-30T04:13:10.554Z,56.00
2017-08-30T04:15:38.818Z,56.00
2017-08-30T04:18:07.847Z,56.00
2017-08-30T04:20:36.328Z,56.00
2017-08-30T04:23:04.587Z,56.00
2017-08-30T04:25:32.813Z,56.00
2017-08-30T04:28:01.070Z,56.00
2017-08-30T04:30:29.108Z,56.10
2017-08-30T04:32:57.327Z,56.00
2017-08-30T04:35:25.614Z,56.00
2017-08-30T04:37:53.841Z,56.00
2017-08-30T04:40:22.059Z,56.00
2017-08-30T04:42:50.336Z,56.10
2017-08-30T04:45:18.603Z,56.10
2017-08-30T04:47:47.617Z,56.10
2017-08-30T04:50:15.870Z,56.10
2017-08-30T04:52:44.099Z,56.10
2017-08-30T04:55:12.322Z,56.10
2017-08-30T04:57:40.614Z,56.70
2017-08-30T05:00:09.110Z,56.10
2017-08-30T05:02:37.323Z,56.00
2017-08-30T05:05:05.597Z,56.00
2017-08-30T05:07:33.825Z,56.70
2017-08-30T05:10:02.047Z,56.10
2017-08-30T05:12:30.342Z,56.00
2017-08-30T05:14:58.565Z,56.10
2017-08-30T05:17:26.821Z,56.10
2017-08-30T05:19:55.061Z,56.00
2017-08-30T05:22:23.345Z,56.00
2017-08-30T05:24:51.803Z,56.00
2017-08-30T05:27:20.043Z,56.00
2017-08-30T05:29:48.311Z,56.00
2017-08-30T05:32:16.531Z,56.00
2017-08-30T05:34:44.885Z,56.00
2017-08-30T05:37:13.137Z,56.00
2017-08-30T05:39:41.397Z,56.00
2017-08-30T05:42:09.488Z,56.00
2017-08-30T05:44:37.704Z,56.00
2017-08-30T05:47:05.777Z,56.00
2017-08-30T05:49:34.043Z,56.00
2017-08-30T05:52:02.302Z,56.00
2017-08-30T05:54:30.525Z,56.00
2017-08-30T05:56:58.773Z,56.00
2017-08-30T05:59:27.310Z,56.00
2017-08-30T06:01:55.639Z,56.60
2017-08-30T06:04:23.996Z,56.00
2017-08-30T06:06:52.249Z,56.00
2017-08-30T06:09:20.341Z,56.00
2017-08-30T06:11:48.627Z,56.00
2017-08-30T06:14:16.895Z,56.00
2017-08-30T06:16:45.159Z,56.00
2017-08-30T06:19:13.400Z,55.90
2017-08-30T06:21:41.667Z,55.90
2017-08-30T06:24:09.921Z,56.00
2017-08-30T06:26:38.202Z,55.90
2017-08-30T06:29:06.429Z,55.90
2017-08-30T06:31:34.698Z,55.90
2017-08-30T06:34:02.936Z,55.90
2017-08-30T06:36:30.967Z,55.80
2017-08-30T06:38:59.201Z,55.90
2017-08-30T06:41:27.603Z,55.90
2017-08-30T06:43:55.858Z,55.90
2017-08-30T06:46:24.697Z,55.90
2017-08-30T06:48:52.935Z,55.80
2017-08-30T06:51:21.216Z,55.90
2017-08-30T06:53:49.450Z,55.90
2017-08-30T06:56:17.732Z,55.90
2017-08-30T06:58:45.976Z,55.90
2017-08-30T07:01:14.490Z,55.90
2017-08-30T07:03:42.774Z,55.90
2017-08-30T07:06:10.829Z,55.90
2017-08-30T07:08:39.086Z,55.80
2017-08-30T07:11:07.350Z,55.90
2017-08-30T07:13:35.851Z,55.80
2017-08-30T07:16:04.064Z,55.80
2017-08-30T07:18:32.347Z,55.80
2017-08-30T07:21:00.572Z,55.80
2017-08-30T07:23:29.065Z,55.80
2017-08-30T07:25:57.353Z,55.80
2017-08-30T07:28:25.584Z,55.80
2017-08-30T07:30:53.802Z,55.80
2017-08-30T07:33:22.053Z,55.80
2017-08-30T07:35:50.265Z,55.80
2017-08-30T07:38:18.544Z,55.80
2017-08-30T07:40:46.846Z,55.80
2017-08-30T07:43:15.068Z,55.70
2017-08-30T07:45:44.100Z,55.80
2017-08-30T07:48:12.376Z,55.70
2017-08-30T07:50:40.637Z,55.70
2017-08-30T07:53:08.890Z,55.80
2017-08-30T07:55:37.124Z,55.70
2017-08-30T07:58:05.342Z,55.80
2017-08-30T08:00:33.607Z,55.80
2017-08-30T08:03:02.376Z,55.80
2017-08-30T08:05:30.649Z,55.80
2017-08-30T08:07:58.860Z,55.80
2017-08-30T08:10:27.389Z,55.70
2017-08-30T08:12:55.640Z,55.70
2017-08-30T08:15:23.892Z,55.70
2017-08-30T08:17:52.157Z,55.70
2017-08-30T08:20:20.193Z,55.70
2017-08-30T08:22:48.454Z,55.70
2017-08-30T08:25:17.498Z,55.70
2017-08-30T08:27:45.739Z,55.70
2017-08-30T08:30:14.004Z,55.70
2017-08-30T08:32:42.305Z,55.70
2017-08-30T08:35:10.577Z,55.70
2017-08-30T08:37:38.658Z,55.60
2017-08-30T08:40:06.918Z,55.60
2017-08-30T08:42:35.136Z,55.60
2017-08-30T08:45:03.221Z,55.60
2017-08-30T08:47:31.462Z,55.60
2017-08-30T08:49:59.727Z,55.60
2017-08-30T08:52:27.943Z,55.60
2017-08-30T08:54:56.226Z,55.60
2017-08-30T08:57:24.440Z,55.60
2017-08-30T08:59:52.702Z,55.60
2017-08-30T09:02:20.972Z,55.60
2017-08-30T09:04:49.202Z,55.60
2017-08-30T09:07:17.423Z,55.60
2017-08-30T09:09:45.660Z,55.60
2017-08-30T09:12:13.931Z,55.60
2017-08-30T09:14:42.156Z,55.60
2017-08-30T09:17:10.408Z,55.60
2017-08-30T09:19:38.641Z,55.60
2017-08-30T09:22:06.860Z,55.60
2017-08-30T09:24:35.113Z,55.50
2017-08-30T09:27:04.137Z,55.60
2017-08-30T09:29:32.427Z,55.60
2017-08-30T09:32:00.689Z,55.60
2017-08-30T09:34:28.733Z,55.60
2017-08-30T09:36:56.969Z,56.30
2017-08-30T09:39:25.208Z,55.60
2017-08-30T09:41:53.457Z,55.50
2017-08-30T09:44:21.728Z,55.60
2017-08-30T09:46:50.033Z,55.60
2017-08-30T09:49:18.284Z,55.50
2017-08-30T09:51:46.550Z,55.50
2017-08-30T09:54:14.605Z,55.50
2017-08-30T09:56:42.835Z,55.50
2017-08-30T09:59:11.061Z,55.50
2017-08-30T10:01:39.157Z,55.50
2017-08-30T10:04:07.401Z,55.50
2017-08-30T10:06:35.671Z,55.50
2017-08-30T10:09:03.459Z,55.50
2017-08-30T10:11:31.739Z,55.50
2017-08-30T10:13:59.990Z,55.50
2017-08-30T10:16:28.270Z,55.50
2017-08-30T10:18:56.526Z,55.50
2017-08-30T10:21:24.552Z,55.50
2017-08-30T10:23:52.847Z,55.50
2017-08-30T10:26:21.161Z,55.50
2017-08-30T10:28:50.176Z,55.50
2017-08-30T10:31:18.446Z,55.40
2017-08-30T10:33:46.492Z,55.50
2017-08-30T10:36:14.736Z,55.50
2017-08-30T10:38:43.011Z,55.50
2017-08-30T10:41:11.071Z,55.50
2017-08-30T10:43:39.355Z,55.50
2017-08-30T10:46:07.610Z,55.40
2017-08-30T10:48:35.880Z,55.40
2017-08-30T10:51:04.096Z,55.40
2017-08-30T10:53:32.446Z,55.40
2017-08-30T10:56:01.475Z,55.40
2017-08-30T10:58:29.729Z,55.40
2017-08-30T11:00:58.012Z,55.40
2017-08-30T11:03:26.270Z,55.40
2017-08-30T11:05:54.525Z,55.40
2017-08-30T11:08:22.828Z,55.40
2017-08-30T11:10:51.077Z,55.40
2017-08-30T11:13:19.296Z,55.40
2017-08-30T11:15:47.574Z,55.40
2017-08-30T11:18:15.814Z,55.40
2017-08-30T11:20:44.091Z,55.40
2017-08-30T11:23:12.148Z,55.40
2017-08-30T11:25:40.403Z,55.40
2017-08-30T11:28:08.633Z,55.40
2017-08-30T11:30:36.872Z,55.40
2017-08-30T11:33:05.107Z,55.40
2017-08-30T11:35:33.323Z,55.40
2017-08-30T11:38:01.625Z,56.00
2017-08-30T11:40:30.618Z,55.40
2017-08-30T11:42:58.849Z,55.40
2017-08-30T11:45:27.102Z,55.40
2017-08-30T11:47:55.376Z,55.40
2017-08-30T11:50:23.605Z,55.40
2017-08-30T11:52:51.862Z,55.40
2017-08-30T11:55:20.091Z,55.40
2017-08-30T11:57:48.341Z,55.40
2017-08-30T12:00:16.589Z,55.40
2017-08-30T12:02:44.821Z,56.00
2017-08-30T12:05:13.075Z,55.40
2017-08-30T12:07:41.356Z,55.30
2017-08-30T12:10:09.567Z,55.40
2017-08-30T12:12:37.831Z,55.40
2017-08-30T12:15:06.423Z,55.40
2017-08-30T12:17:34.645Z,55.40
2017-08-30T12:20:03.679Z,55.40
2017-08-30T12:22:31.960Z,55.40
2017-08-30T12:25:00.204Z,55.40
2017-08-30T12:27:28.475Z,55.40
2017-08-30T12:29:56.760Z,55.40
2017-08-30T12:32:25.020Z,55.40
2017-08-30T12:34:53.275Z,55.50
2017-08-30T12:40:26.689Z,55.30
2017-08-30T12:42:54.964Z,55.40
2017-08-30T12:45:23.961Z,55.40
2017-08-30T12:47:52.249Z,55.30
2017-08-30T12:50:20.480Z,55.40
2017-08-30T12:52:48.744Z,55.30
2017-08-30T12:55:17.005Z,55.40
2017-08-30T12:57:45.275Z,55.40
2017-08-30T13:00:13.492Z,55.40
2017-08-30T13:02:41.758Z,55.30
2017-08-30T13:05:09.996Z,55.40
2017-08-30T13:07:38.225Z,55.40
2017-08-30T13:10:06.489Z,55.40
2017-08-30T13:12:34.790Z,55.40
2017-08-30T13:15:03.772Z,55.40
2017-08-30T13:17:32.055Z,55.40
2017-08-30T13:20:00.309Z,55.40
2017-08-30T13:22:28.566Z,55.40
2017-08-30T13:24:56.819Z,55.40
2017-08-30T13:27:25.087Z,55.40
2017-08-30T13:29:53.313Z,55.40
2017-08-30T13:32:22.122Z,55.50
2017-08-30T13:34:50.381Z,55.50
2017-08-30T13:37:18.619Z,55.40
2017-08-30T13:39:47.685Z,55.40
2017-08-30T13:42:16.159Z,55.40
2017-08-30T13:44:44.432Z,55.40
2017-08-30T13:47:12.686Z,55.40
2017-08-30T13:49:40.769Z,55.40
2017-08-30T13:52:09.023Z,55.40
2017-08-30T13:54:38.027Z,55.40
2017-08-30T13:57:06.307Z,55.40
2017-08-30T13:59:34.565Z,55.40
2017-08-30T14:02:02.822Z,55.40
2017-08-30T14:04:31.101Z,55.40
2017-08-30T14:06:59.368Z,55.40
2017-08-30T14:09:27.617Z,55.40
2017-08-30T14:11:55.901Z,55.40
2017-08-30T14:14:24.162Z,55.40
2017-08-30T14:16:53.184Z,56.20
2017-08-30T14:19:21.246Z,55.40
2017-08-30T14:21:49.489Z,55.40
2017-08-30T14:24:17.756Z,55.40
2017-08-30T14:26:46.025Z,55.40
2017-08-30T14:29:14.257Z,55.40
2017-08-30T14:31:42.516Z,55.40
2017-08-30T14:34:11.571Z,55.40
2017-08-30T14:36:39.799Z,55.40
2017-08-30T14:39:08.063Z,55.40
2017-08-30T14:41:37.105Z,55.40
2017-08-30T14:44:06.102Z,55.40
2017-08-30T14:46:34.357Z,56.00
2017-08-30T14:49:02.727Z,55.40
2017-08-30T14:51:30.991Z,55.20
2017-08-30T14:53:59.985Z,55.50
2017-08-30T14:56:28.487Z,55.40
2017-08-30T14:58:56.571Z,55.40
2017-08-30T15:01:24.792Z,55.40
2017-08-30T15:03:53.036Z,55.40
2017-08-30T15:06:21.273Z,55.40
2017-08-30T15:08:50.269Z,55.40
2017-08-30T15:11:18.550Z,55.40
2017-08-30T15:13:46.799Z,55.40
2017-08-30T15:16:15.027Z,55.40
2017-08-30T15:18:44.340Z,55.40
2017-08-30T15:21:12.378Z,55.40
2017-08-30T15:23:40.632Z,55.40
2017-08-30T15:26:09.158Z,55.40
2017-08-30T15:28:37.232Z,55.40
2017-08-30T15:31:05.444Z,55.40
2017-08-30T15:33:33.763Z,55.40
2017-08-30T15:36:02.020Z,56.10
2017-08-30T15:38:30.297Z,55.40
2017-08-30T15:40:58.527Z,55.40
2017-08-30T15:43:26.761Z,55.50
2017-08-30T15:45:55.004Z,55.40
2017-08-30T15:48:23.290Z,55.40
2017-08-30T15:50:51.513Z,55.50
2017-08-30T15:53:19.773Z,55.40
2017-08-30T15:55:48.271Z,55.40
2017-08-30T15:58:16.527Z,55.40
2017-08-30T16:00:44.747Z,55.50
2017-08-30T16:03:12.992Z,55.40
2017-08-30T16:05:41.279Z,55.50
2017-08-30T16:08:09.504Z,55.40
2017-08-30T16:10:37.751Z,55.40
2017-08-30T16:13:06.094Z,55.50
2017-08-30T16:15:34.320Z,55.40
2017-08-30T16:18:03.295Z,55.50
2017-08-30T16:20:31.508Z,55.50
2017-08-30T16:22:59.792Z,55.40
2017-08-30T16:25:28.051Z,55.50
2017-08-30T16:27:56.277Z,55.50
2017-08-30T16:30:24.572Z,55.50
2017-08-30T16:32:52.873Z,55.50
2017-08-30T16:35:21.121Z,55.50
2017-08-30T16:37:49.342Z,55.50
2017-08-30T16:40:18.111Z,55.50
2017-08-30T16:42:46.323Z,55.50
2017-08-30T16:45:14.591Z,55.50
2017-08-30T16:47:42.824Z,55.50
2017-08-30T16:50:11.103Z,55.50
2017-08-30T16:52:39.362Z,55.50
2017-08-30T16:55:07.609Z,55.50
2017-08-30T16:57:35.661Z,55.50
2017-08-30T17:00:03.918Z,55.50
2017-08-30T17:02:32.198Z,55.60
2017-08-30T17:05:00.429Z,55.50
2017-08-30T17:07:28.691Z,55.50
2017-08-30T17:09:56.928Z,55.60
2017-08-30T17:12:24.968Z,55.60
2017-08-30T17:14:53.199Z,55.60
2017-08-30T17:17:21.717Z,55.60
2017-08-30T17:19:49.949Z,55.60
2017-08-30T17:22:18.974Z,55.60
2017-08-30T17:24:47.078Z,55.60
2017-08-30T17:27:15.103Z,55.60
2017-08-30T17:29:43.364Z,55.60
2017-08-30T17:32:11.643Z,55.60
2017-08-30T17:34:39.860Z,55.60
2017-08-30T17:37:08.088Z,56.10
2017-08-30T17:39:36.132Z,55.60
2017-08-30T17:42:04.373Z,55.60
2017-08-30T17:44:32.616Z,55.60
2017-08-30T17:47:00.867Z,55.60
2017-08-30T17:49:29.117Z,55.60
2017-08-30T17:51:57.357Z,55.60
2017-08-30T17:54:25.635Z,55.60
2017-08-30T17:56:53.876Z,55.60
2017-08-30T17:59:22.878Z,55.60
2017-08-30T18:01:50.959Z,55.70
2017-08-30T18:04:19.211Z,55.70
2017-08-30T18:06:47.444Z,55.60
2017-08-30T18:09:15.712Z,55.70
2017-08-30T18:11:44.163Z,55.70
2017-08-30T18:14:12.393Z,55.70
2017-08-30T18:16:40.487Z,55.70
2017-08-30T18:19:08.753Z,55.70
2017-08-30T18:21:37.020Z,55.70
2017-08-30T18:24:05.296Z,55.70
2017-08-30T18:26:33.527Z,55.70
2017-08-30T18:29:01.760Z,55.70
2017-08-30T18:31:30.204Z,55.70
2017-08-30T18:33:58.428Z,55.70
2017-08-30T18:36:26.703Z,56.30
2017-08-30T18:38:54.961Z,56.30
2017-08-30T18:41:23.209Z,55.70
2017-08-30T18:43:51.439Z,55.70
2017-08-30T18:46:19.708Z,55.70
2017-08-30T18:48:47.957Z,55.70
2017-08-30T18:51:16.183Z,55.70
2017-08-30T18:53:44.473Z,55.70
2017-08-30T18:56:12.695Z,55.70
2017-08-30T18:58:41.176Z,55.70
2017-08-30T19:01:09.461Z,55.70
2017-08-30T19:03:37.721Z,55.70
2017-08-30T19:06:05.978Z,55.70
2017-08-30T19:08:34.252Z,55.70
2017-08-30T19:11:02.737Z,55.70
2017-08-30T19:13:30.973Z,55.70
2017-08-30T19:15:59.274Z,55.70
2017-08-30T19:18:27.529Z,55.80
2017-08-30T19:20:55.552Z,55.70
2017-08-30T19:23:23.801Z,55.70
2017-08-30T19:25:52.071Z,55.80
2017-08-30T19:28:20.326Z,55.70
2017-08-30T19:30:48.567Z,56.30
2017-08-30T19:33:16.795Z,55.80
2017-08-30T19:35:45.068Z,55.70
2017-08-30T19:38:17.016Z,55.70
2017-08-30T19:40:45.758Z,55.70
2017-08-30T19:43:13.839Z,55.70
2017-08-30T19:45:42.085Z,55.70
2017-08-30T19:48:10.311Z,55.80
2017-08-30T19:50:38.345Z,55.80
2017-08-30T19:53:06.409Z,55.80
2017-08-30T19:55:34.477Z,56.00
2017-08-30T19:58:02.555Z,55.80
2017-08-30T20:00:30.837Z,55.80
2017-08-30T20:02:59.061Z,55.80
2017-08-30T20:05:27.359Z,55.80
2017-08-30T20:07:55.622Z,55.90
2017-08-30T20:10:23.888Z,55.80
2017-08-30T20:12:52.109Z,55.80
2017-08-30T20:15:20.387Z,55.80
2017-08-30T20:17:48.613Z,55.80
2017-08-30T20:20:16.874Z,55.80
2017-08-30T20:22:44.933Z,55.80
2017-08-30T20:25:13.958Z,55.80
2017-08-30T20:27:42.185Z,55.80
2017-08-30T20:30:10.430Z,55.80
2017-08-30T20:32:38.657Z,55.80
2017-08-30T20:35:06.894Z,55.80
2017-08-30T20:37:35.475Z,55.80
2017-08-30T20:40:03.736Z,55.80
2017-08-30T20:42:31.995Z,55.80
2017-08-30T20:45:00.482Z,55.80
2017-08-30T20:47:28.715Z,55.80
2017-08-30T20:49:56.978Z,55.80
2017-08-30T20:52:25.250Z,55.80
2017-08-30T20:54:53.463Z,55.80
2017-08-30T20:57:21.688Z,55.80
2017-08-30T20:59:49.938Z,55.80
2017-08-30T21:02:18.153Z,55.80
2017-08-30T21:04:47.414Z,55.80
2017-08-30T21:07:15.663Z,55.80
2017-08-30T21:09:43.785Z,55.80
2017-08-30T21:12:12.007Z,55.80
2017-08-30T21:14:41.064Z,55.80
2017-08-30T21:17:09.313Z,55.80
2017-08-30T21:19:37.536Z,55.80
2017-08-30T21:22:05.783Z,55.80
2017-08-30T21:24:33.871Z,55.80
2017-08-30T21:27:02.118Z,55.80
2017-08-30T21:29:30.365Z,55.80
2017-08-30T21:31:59.618Z,55.80
2017-08-30T21:34:28.659Z,55.80
2017-08-30T21:36:56.947Z,55.80
2017-08-30T21:39:26.261Z,55.80
2017-08-30T21:41:54.493Z,55.80
2017-08-30T21:44:23.030Z,55.80
2017-08-30T21:46:51.454Z,55.80
2017-08-30T21:49:19.706Z,55.80
2017-08-30T21:51:48.665Z,55.80
2017-08-30T21:54:16.884Z,56.40
2017-08-30T21:56:45.133Z,55.80
2017-08-30T21:59:13.368Z,55.80
2017-08-30T22:01:41.612Z,55.80
2017-08-30T22:04:09.832Z,55.80
2017-08-30T22:06:38.119Z,55.80
2017-08-30T22:09:06.345Z,55.80
2017-08-30T22:11:34.619Z,56.40
2017-08-30T22:14:02.872Z,55.80
2017-08-30T22:16:31.116Z,55.80
2017-08-30T22:18:59.373Z,55.80
2017-08-30T22:21:27.618Z,55.80
2017-08-30T22:23:55.852Z,55.80
2017-08-30T22:26:24.067Z,55.80
2017-08-30T22:28:52.355Z,55.80
2017-08-30T22:31:20.610Z,55.80
2017-08-30T22:33:48.824Z,55.80
2017-08-30T22:36:17.083Z,55.90
2017-08-30T22:38:45.337Z,55.80
2017-08-30T22:41:13.567Z,55.80
2017-08-30T22:43:41.817Z,55.80
2017-08-30T22:46:10.041Z,55.80
2017-08-30T22:48:38.293Z,55.80
2017-08-30T22:51:06.541Z,55.80
2017-08-30T22:53:35.041Z,56.50
2017-08-30T22:56:04.149Z,55.80
2017-08-30T22:58:32.409Z,55.80
2017-08-30T23:01:00.627Z,55.80
2017-08-30T23:03:28.631Z,55.80
2017-08-30T23:05:56.893Z,55.80
2017-08-30T23:08:25.141Z,55.80
2017-08-30T23:10:53.407Z,55.80
2017-08-30T23:13:21.465Z,55.80
2017-08-30T23:15:49.684Z,55.80
2017-08-30T23:18:18.502Z,55.80
2017-08-30T23:20:46.882Z,55.80
2017-08-30T23:23:15.138Z,55.80
2017-08-30T23:25:43.352Z,55.80
2017-08-30T23:28:11.583Z,55.80
2017-08-30T23:30:39.841Z,55.80
2017-08-30T23:33:08.063Z,55.80
2017-08-30T23:35:36.296Z,55.80
2017-08-30T23:38:04.535Z,55.80
2017-08-30T23:40:32.799Z,55.90
2017-08-30T23:43:01.070Z,55.80
2017-08-30T23:45:29.284Z,55.80
2017-08-30T23:47:58.083Z,55.80
2017-08-30T23:50:26.371Z,55.80
2017-08-30T23:52:54.623Z,55.80
2017-08-30T23:55:22.854Z,55.80
2017-08-30T23:57:51.130Z,55.80
